Accueil
METAR-TAF:

METAR-TAF

Aéroports :

Aéroport de Shoreham

Brighton, Angleterre

latitude: 50-50N, longitude: 000-17W, altitude: 2 m

Observation

Le bulletin a été fait il y a 15 minutes, à 13:20 UTC
Vent 16 kt de sud-ouest
Température 19°C
Humidité 68%
Pression 1026 hPa
Visibilité 10 km ou plus
Quelques nuages à une hauteur de 3000 ft

METAR: EGKA 221320Z 22016KT 9999 FEW030 19/13 Q1026

Heure: 14:35 (13:35 UTC)

Prévision

Le bulletin a été fait il y a 2 heures et 35 minutes, à 11:00 UTC
Prévision valable du 22 à 12 UTC au 22 à 19 UTC
Vent 12 kt de sud-ouest
Visibilité 10 km ou plus
Quelques nuages à une hauteur de 2500 ft

TAF: EGKA 221100Z 2212/2219 22012KT 9999 FEW025

Observations et prévisions météorologiques de plus de 4000 aéroports (messages METAR et TAF).

Les stations disponibles sont représentées par des disques jaunes et rouges sur la carte.

Passer la souris dessus pour voir le nom de la station.

Cliquer dessus pour voir les observations et prévisions météorologiques.

Pour changer de carte: cliquez sur les boutons verts avec une croix noire pour zoomer, sur le bouton vert avec un tiret pour effectuer un zoom arrière, ou sur les flèches vertes pour les cartes adjacentes.


METAR-TAF: